sensor_id;sensor_type;location;lat;lon;timestamp;pressure;altitude;pressure_sealevel;temperature;humidity
48668;BME280;34453;52.198;5.004;2023-09-19T00:00:59;100545.19;;;14.37;100.00
48668;BME280;34453;52.198;5.004;2023-09-19T00:03:25;100552.81;;;14.32;100.00
48668;BME280;34453;52.198;5.004;2023-09-19T00:05:53;100553.44;;;14.34;100.00
48668;BME280;34453;52.198;5.004;2023-09-19T00:08:20;100557.41;;;14.30;100.00
48668;BME280;34453;52.198;5.004;2023-09-19T00:10:50;100555.63;;;14.22;100.00
48668;BME280;34453;52.198;5.004;2023-09-19T00:13:15;100562.06;;;14.20;100.00
48668;BME280;34453;52.198;5.004;2023-09-19T00:15:43;100565.47;;;14.28;100.00
48668;BME280;34453;52.198;5.004;2023-09-19T00:18:13;100557.28;;;14.23;100.00
48668;BME280;34453;52.198;5.004;2023-09-19T00:20:41;100555.31;;;14.25;100.00
48668;BME280;34453;52.198;5.004;2023-09-19T00:23:07;100563.13;;;14.34;100.00
48668;BME280;34453;52.198;5.004;2023-09-19T00:25:36;100566.78;;;14.33;100.00
48668;BME280;34453;52.198;5.004;2023-09-19T00:28:03;100558.34;;;14.37;100.00
48668;BME280;34453;52.198;5.004;2023-09-19T00:30:29;100558.72;;;14.34;100.00
48668;BME280;34453;52.198;5.004;2023-09-19T00:32:54;100555.25;;;14.34;100.00
48668;BME280;34453;52.198;5.004;2023-09-19T00:35:20;100559.16;;;14.38;100.00
48668;BME280;34453;52.198;5.004;2023-09-19T00:37:46;100559.00;;;14.39;100.00
48668;BME280;34453;52.198;5.004;2023-09-19T00:40:12;100564.63;;;14.36;100.00
48668;BME280;34453;52.198;5.004;2023-09-19T00:42:39;100570.84;;;14.43;100.00
48668;BME280;34453;52.198;5.004;2023-09-19T00:45:05;100567.25;;;14.36;100.00
48668;BME280;34453;52.198;5.004;2023-09-19T00:47:31;100578.41;;;14.38;100.00
48668;BME280;34453;52.198;5.004;2023-09-19T00:49:57;100559.53;;;14.35;100.00
48668;BME280;34453;52.198;5.004;2023-09-19T00:52:23;100568.88;;;14.37;100.00
48668;BME280;34453;52.198;5.004;2023-09-19T00:54:50;100581.38;;;14.35;100.00
48668;BME280;34453;52.198;5.004;2023-09-19T00:57:15;100581.22;;;14.37;100.00
48668;BME280;34453;52.198;5.004;2023-09-19T00:59:44;100585.03;;;14.34;100.00
48668;BME280;34453;52.198;5.004;2023-09-19T01:02:10;100580.75;;;14.33;100.00
48668;BME280;34453;52.198;5.004;2023-09-19T01:04:40;100577.97;;;14.26;100.00
48668;BME280;34453;52.198;5.004;2023-09-19T01:07:06;100570.59;;;14.22;100.00
48668;BME280;34453;52.198;5.004;2023-09-19T01:09:33;100580.16;;;14.23;100.00
48668;BME280;34453;52.198;5.004;2023-09-19T01:12:02;100580.91;;;14.31;100.00
48668;BME280;34453;52.198;5.004;2023-09-19T01:14:44;100593.44;;;14.29;100.00
48668;BME280;34453;52.198;5.004;2023-09-19T01:17:42;100576.81;;;14.29;100.00
48668;BME280;34453;52.198;5.004;2023-09-19T01:20:19;100586.03;;;14.25;100.00
48668;BME280;34453;52.198;5.004;2023-09-19T01:23:06;100586.00;;;14.33;100.00
48668;BME280;34453;52.198;5.004;2023-09-19T01:31:11;100584.50;;;14.39;100.00
48668;BME280;34453;52.198;5.004;2023-09-19T01:33:57;100592.28;;;14.32;100.00
48668;BME280;34453;52.198;5.004;2023-09-19T01:36:24;100599.81;;;14.35;100.00
48668;BME280;34453;52.198;5.004;2023-09-19T01:38:51;100597.53;;;14.32;100.00
48668;BME280;34453;52.198;5.004;2023-09-19T01:41:24;100600.50;;;14.29;100.00
48668;BME280;34453;52.198;5.004;2023-09-19T01:43:51;100606.25;;;14.33;100.00
48668;BME280;34453;52.198;5.004;2023-09-19T01:46:21;100603.13;;;14.29;100.00
48668;BME280;34453;52.198;5.004;2023-09-19T01:54:52;100631.75;;;14.32;100.00
48668;BME280;34453;52.198;5.004;2023-09-19T01:57:25;100630.41;;;14.36;100.00
48668;BME280;34453;52.198;5.004;2023-09-19T02:00:06;100616.59;;;14.34;100.00
48668;BME280;34453;52.198;5.004;2023-09-19T02:02:35;100621.53;;;14.37;100.00
48668;BME280;34453;52.198;5.004;2023-09-19T02:05:02;100615.75;;;14.34;100.00
48668;BME280;34453;52.198;5.004;2023-09-19T02:07:29;100618.59;;;14.32;100.00
48668;BME280;34453;52.198;5.004;2023-09-19T02:09:56;100622.19;;;14.31;100.00
48668;BME280;34453;52.198;5.004;2023-09-19T02:12:22;100630.44;;;14.28;100.00
48668;BME280;34453;52.198;5.004;2023-09-19T02:14:48;100629.63;;;14.27;100.00
48668;BME280;34453;52.198;5.004;2023-09-19T02:17:13;100627.50;;;14.23;100.00
48668;BME280;34453;52.198;5.004;2023-09-19T02:19:39;100639.00;;;14.22;100.00
48668;BME280;34453;52.198;5.004;2023-09-19T02:22:06;100625.03;;;14.29;100.00
48668;BME280;34453;52.198;5.004;2023-09-19T02:24:33;100618.09;;;14.28;100.00
48668;BME280;34453;52.198;5.004;2023-09-19T02:26:58;100640.81;;;14.29;100.00
48668;BME280;34453;52.198;5.004;2023-09-19T02:29:28;100618.44;;;14.25;100.00
48668;BME280;34453;52.198;5.004;2023-09-19T02:31:55;100628.09;;;14.33;100.00
48668;BME280;34453;52.198;5.004;2023-09-19T02:34:24;100638.31;;;14.36;100.00
48668;BME280;34453;52.198;5.004;2023-09-19T02:36:50;100632.84;;;14.38;100.00
48668;BME280;34453;52.198;5.004;2023-09-19T02:39:17;100632.69;;;14.39;100.00
48668;BME280;34453;52.198;5.004;2023-09-19T02:41:43;100641.09;;;14.43;100.00
48668;BME280;34453;52.198;5.004;2023-09-19T02:44:08;100630.22;;;14.38;100.00
48668;BME280;34453;52.198;5.004;2023-09-19T02:46:34;100643.72;;;14.43;100.00
48668;BME280;34453;52.198;5.004;2023-09-19T02:49:01;100641.19;;;14.49;100.00
48668;BME280;34453;52.198;5.004;2023-09-19T02:51:28;100649.44;;;14.55;100.00
48668;BME280;34453;52.198;5.004;2023-09-19T02:53:53;100634.66;;;14.45;100.00
48668;BME280;34453;52.198;5.004;2023-09-19T02:56:19;100633.28;;;14.49;100.00
48668;BME280;34453;52.198;5.004;2023-09-19T02:58:45;100641.19;;;14.49;100.00
48668;BME280;34453;52.198;5.004;2023-09-19T03:01:10;100628.38;;;14.55;100.00
48668;BME280;34453;52.198;5.004;2023-09-19T03:03:39;100633.13;;;14.51;100.00
48668;BME280;34453;52.198;5.004;2023-09-19T03:06:06;100626.69;;;14.54;100.00
48668;BME280;34453;52.198;5.004;2023-09-19T03:08:34;100643.66;;;14.59;100.00
48668;BME280;34453;52.198;5.004;2023-09-19T03:11:05;100636.22;;;14.63;100.00
48668;BME280;34453;52.198;5.004;2023-09-19T03:13:32;100633.91;;;14.68;100.00
48668;BME280;34453;52.198;5.004;2023-09-19T03:15:57;100638.16;;;14.69;100.00
48668;BME280;34453;52.198;5.004;2023-09-19T03:18:26;100634.25;;;14.65;100.00
48668;BME280;34453;52.198;5.004;2023-09-19T03:20:55;100631.28;;;14.68;100.00
48668;BME280;34453;52.198;5.004;2023-09-19T03:23:21;100638.25;;;14.61;100.00
48668;BME280;34453;52.198;5.004;2023-09-19T03:25:47;100621.44;;;14.54;100.00
48668;BME280;34453;52.198;5.004;2023-09-19T03:28:13;100635.28;;;14.56;100.00
48668;BME280;34453;52.198;5.004;2023-09-19T03:30:38;100633.94;;;14.60;100.00
48668;BME280;34453;52.198;5.004;2023-09-19T03:33:04;100623.41;;;14.51;100.00
48668;BME280;34453;52.198;5.004;2023-09-19T03:35:30;100624.59;;;14.49;100.00
48668;BME280;34453;52.198;5.004;2023-09-19T03:37:55;100617.50;;;14.49;100.00
48668;BME280;34453;52.198;5.004;2023-09-19T03:40:21;100622.97;;;14.48;100.00
48668;BME280;34453;52.198;5.004;2023-09-19T03:42:48;100623.13;;;14.46;100.00
48668;BME280;34453;52.198;5.004;2023-09-19T03:45:14;100624.13;;;14.45;100.00
48668;BME280;34453;52.198;5.004;2023-09-19T03:47:41;100629.13;;;14.32;100.00
48668;BME280;34453;52.198;5.004;2023-09-19T03:50:07;100639.97;;;14.29;100.00
48668;BME280;34453;52.198;5.004;2023-09-19T03:52:34;100632.94;;;14.21;100.00
48668;BME280;34453;52.198;5.004;2023-09-19T03:54:59;100633.75;;;14.22;100.00
48668;BME280;34453;52.198;5.004;2023-09-19T03:57:26;100634.09;;;14.19;100.00
48668;BME280;34453;52.198;5.004;2023-09-19T03:59:51;100632.63;;;14.16;100.00
48668;BME280;34453;52.198;5.004;2023-09-19T04:02:19;100638.69;;;14.17;100.00
48668;BME280;34453;52.198;5.004;2023-09-19T04:04:48;100622.88;;;14.25;100.00
48668;BME280;34453;52.198;5.004;2023-09-19T04:07:13;100634.69;;;14.29;100.00
48668;BME280;34453;52.198;5.004;2023-09-19T04:09:39;100644.25;;;14.30;100.00
48668;BME280;34453;52.198;5.004;2023-09-19T04:12:05;100639.16;;;14.28;100.00
48668;BME280;34453;52.198;5.004;2023-09-19T04:14:30;100654.44;;;14.33;100.00
48668;BME280;34453;52.198;5.004;2023-09-19T04:16:56;100655.09;;;14.35;100.00
48668;BME280;34453;52.198;5.004;2023-09-19T04:19:21;100661.66;;;14.31;100.00
48668;BME280;34453;52.198;5.004;2023-09-19T04:21:47;100647.19;;;14.27;100.00
48668;BME280;34453;52.198;5.004;2023-09-19T04:24:12;100651.81;;;14.25;100.00
48668;BME280;34453;52.198;5.004;2023-09-19T04:26:38;100649.88;;;14.19;100.00
48668;BME280;34453;52.198;5.004;2023-09-19T04:29:04;100652.16;;;14.22;100.00
48668;BME280;34453;52.198;5.004;2023-09-19T04:31:30;100668.09;;;14.20;100.00
48668;BME280;34453;52.198;5.004;2023-09-19T04:33:56;100662.38;;;14.17;100.00
48668;BME280;34453;52.198;5.004;2023-09-19T04:36:23;100654.28;;;14.18;100.00
48668;BME280;34453;52.198;5.004;2023-09-19T04:38:48;100663.03;;;14.19;100.00
48668;BME280;34453;52.198;5.004;2023-09-19T04:41:15;100658.09;;;14.16;100.00
48668;BME280;34453;52.198;5.004;2023-09-19T04:43:40;100662.03;;;14.12;100.00
48668;BME280;34453;52.198;5.004;2023-09-19T04:46:06;100667.00;;;14.15;100.00
48668;BME280;34453;52.198;5.004;2023-09-19T04:48:32;100657.63;;;14.04;100.00
48668;BME280;34453;52.198;5.004;2023-09-19T04:50:59;100659.09;;;14.06;100.00
48668;BME280;34453;52.198;5.004;2023-09-19T04:53:25;100654.19;;;14.03;100.00
48668;BME280;34453;52.198;5.004;2023-09-19T04:55:51;100653.22;;;13.96;100.00
48668;BME280;34453;52.198;5.004;2023-09-19T04:58:18;100658.66;;;13.95;100.00
48668;BME280;34453;52.198;5.004;2023-09-19T05:00:45;100669.00;;;13.96;100.00
48668;BME280;34453;52.198;5.004;2023-09-19T05:03:10;100651.72;;;13.94;100.00
48668;BME280;34453;52.198;5.004;2023-09-19T05:05:36;100666.38;;;13.96;100.00
48668;BME280;34453;52.198;5.004;2023-09-19T05:08:04;100670.28;;;14.00;100.00
48668;BME280;34453;52.198;5.004;2023-09-19T05:10:31;100664.06;;;14.01;100.00
48668;BME280;34453;52.198;5.004;2023-09-19T05:12:57;100668.50;;;14.01;100.00
48668;BME280;34453;52.198;5.004;2023-09-19T05:15:22;100652.22;;;13.97;100.00
48668;BME280;34453;52.198;5.004;2023-09-19T05:17:49;100662.91;;;14.04;100.00
48668;BME280;34453;52.198;5.004;2023-09-19T05:20:19;100661.44;;;14.01;100.00
48668;BME280;34453;52.198;5.004;2023-09-19T05:23:06;100662.09;;;14.03;100.00
48668;BME280;34453;52.198;5.004;2023-09-19T05:25:38;100668.66;;;14.07;100.00
48668;BME280;34453;52.198;5.004;2023-09-19T05:28:08;100666.19;;;14.06;100.00
48668;BME280;34453;52.198;5.004;2023-09-19T05:30:35;100663.72;;;14.04;100.00
48668;BME280;34453;52.198;5.004;2023-09-19T05:33:08;100672.59;;;14.03;100.00
48668;BME280;34453;52.198;5.004;2023-09-19T05:35:34;100673.06;;;14.07;100.00
48668;BME280;34453;52.198;5.004;2023-09-19T05:38:05;100663.41;;;14.07;100.00
48668;BME280;34453;52.198;5.004;2023-09-19T05:40:34;100672.56;;;14.12;100.00
48668;BME280;34453;52.198;5.004;2023-09-19T05:43:00;100665.69;;;14.10;100.00
48668;BME280;34453;52.198;5.004;2023-09-19T05:45:26;100673.56;;;14.10;100.00
48668;BME280;34453;52.198;5.004;2023-09-19T05:47:53;100679.84;;;14.09;100.00
48668;BME280;34453;52.198;5.004;2023-09-19T05:50:29;100695.59;;;14.18;100.00
48668;BME280;34453;52.198;5.004;2023-09-19T05:52:55;100691.47;;;14.15;100.00
48668;BME280;34453;52.198;5.004;2023-09-19T05:55:23;100680.97;;;14.15;100.00
48668;BME280;34453;52.198;5.004;2023-09-19T05:57:54;100688.03;;;14.23;100.00
48668;BME280;34453;52.198;5.004;2023-09-19T06:00:20;100694.91;;;14.24;100.00
48668;BME280;34453;52.198;5.004;2023-09-19T06:02:56;100699.84;;;14.27;100.00
48668;BME280;34453;52.198;5.004;2023-09-19T06:05:23;100695.41;;;14.27;100.00
48668;BME280;34453;52.198;5.004;2023-09-19T06:07:49;100705.75;;;14.29;100.00
48668;BME280;34453;52.198;5.004;2023-09-19T06:10:16;100689.97;;;14.29;100.00
48668;BME280;34453;52.198;5.004;2023-09-19T06:12:43;100695.88;;;14.31;100.00
48668;BME280;34453;52.198;5.004;2023-09-19T06:15:15;100696.69;;;14.40;100.00
48668;BME280;34453;52.198;5.004;2023-09-19T06:17:47;100693.22;;;14.39;100.00
48668;BME280;34453;52.198;5.004;2023-09-19T06:20:12;100696.50;;;14.41;100.00
48668;BME280;34453;52.198;5.004;2023-09-19T06:22:39;100701.63;;;14.35;100.00
48668;BME280;34453;52.198;5.004;2023-09-19T06:25:07;100690.09;;;14.44;100.00
48668;BME280;34453;52.198;5.004;2023-09-19T06:27:32;100687.94;;;14.47;100.00
48668;BME280;34453;52.198;5.004;2023-09-19T06:29:58;100690.09;;;14.44;100.00
48668;BME280;34453;52.198;5.004;2023-09-19T06:32:27;100684.97;;;14.50;100.00
48668;BME280;34453;52.198;5.004;2023-09-19T06:34:54;100682.31;;;14.50;100.00
48668;BME280;34453;52.198;5.004;2023-09-19T06:37:20;100687.94;;;14.56;100.00
48668;BME280;34453;52.198;5.004;2023-09-19T06:39:47;100692.69;;;14.60;100.00
48668;BME280;34453;52.198;5.004;2023-09-19T06:42:15;100694.50;;;14.60;100.00
48668;BME280;34453;52.198;5.004;2023-09-19T06:44:43;100695.31;;;14.60;100.00
48668;BME280;34453;52.198;5.004;2023-09-19T06:47:08;100707.31;;;14.63;100.00
48668;BME280;34453;52.198;5.004;2023-09-19T06:49:36;100683.31;;;14.58;100.00
48668;BME280;34453;52.198;5.004;2023-09-19T06:52:01;100692.13;;;14.73;100.00
48668;BME280;34453;52.198;5.004;2023-09-19T06:54:28;100684.72;;;14.77;100.00
48668;BME280;34453;52.198;5.004;2023-09-19T06:56:57;100694.91;;;14.80;100.00
48668;BME280;34453;52.198;5.004;2023-09-19T06:59:24;100691.22;;;14.89;100.00
48668;BME280;34453;52.198;5.004;2023-09-19T07:01:49;100689.41;;;14.89;100.00
48668;BME280;34453;52.198;5.004;2023-09-19T07:04:16;100692.00;;;14.98;100.00
48668;BME280;34453;52.198;5.004;2023-09-19T07:06:42;100685.44;;;14.93;100.00
48668;BME280;34453;52.198;5.004;2023-09-19T07:09:08;100699.38;;;15.02;100.00
48668;BME280;34453;52.198;5.004;2023-09-19T07:11:34;100694.59;;;15.06;100.00
48668;BME280;34453;52.198;5.004;2023-09-19T07:13:59;100700.31;;;15.09;100.00
48668;BME280;34453;52.198;5.004;2023-09-19T07:16:28;100711.06;;;15.08;100.00
48668;BME280;34453;52.198;5.004;2023-09-19T07:18:55;100702.78;;;15.11;100.00
48668;BME280;34453;52.198;5.004;2023-09-19T07:21:22;100702.28;;;15.16;100.00
48668;BME280;34453;52.198;5.004;2023-09-19T07:23:48;100710.94;;;15.24;100.00
48668;BME280;34453;52.198;5.004;2023-09-19T07:26:15;100714.59;;;15.23;100.00
48668;BME280;34453;52.198;5.004;2023-09-19T07:28:40;100713.06;;;15.29;100.00
48668;BME280;34453;52.198;5.004;2023-09-19T07:31:06;100706.94;;;15.37;100.00
48668;BME280;34453;52.198;5.004;2023-09-19T07:33:35;100727.28;;;15.43;100.00
48668;BME280;34453;52.198;5.004;2023-09-19T07:36:01;100723.16;;;15.48;100.00
48668;BME280;34453;52.198;5.004;2023-09-19T07:38:26;100719.06;;;15.46;100.00
48668;BME280;34453;52.198;5.004;2023-09-19T07:40:52;100732.81;;;15.56;100.00
48668;BME280;34453;52.198;5.004;2023-09-19T07:43:17;100725.91;;;15.55;100.00
48668;BME280;34453;52.198;5.004;2023-09-19T07:45:43;100730.53;;;15.53;100.00
48668;BME280;34453;52.198;5.004;2023-09-19T07:48:08;100741.59;;;15.48;100.00
48668;BME280;34453;52.198;5.004;2023-09-19T07:50:40;100747.13;;;15.62;100.00
48668;BME280;34453;52.198;5.004;2023-09-19T07:53:08;100749.22;;;15.66;100.00
48668;BME280;34453;52.198;5.004;2023-09-19T07:55:34;100729.91;;;15.74;100.00
48668;BME280;34453;52.198;5.004;2023-09-19T07:57:59;100743.13;;;15.89;100.00
48668;BME280;34453;52.198;5.004;2023-09-19T08:00:25;100750.97;;;15.97;100.00
48668;BME280;34453;52.198;5.004;2023-09-19T08:02:51;100737.63;;;15.99;100.00
48668;BME280;34453;52.198;5.004;2023-09-19T08:05:19;100743.72;;;15.99;100.00
48668;BME280;34453;52.198;5.004;2023-09-19T08:07:46;100743.34;;;16.02;100.00
48668;BME280;34453;52.198;5.004;2023-09-19T08:10:15;100745.72;;;15.97;100.00
48668;BME280;34453;52.198;5.004;2023-09-19T08:12:42;100720.78;;;16.00;100.00
48668;BME280;34453;52.198;5.004;2023-09-19T08:15:15;100726.31;;;16.05;100.00
48668;BME280;34453;52.198;5.004;2023-09-19T08:17:41;100734.44;;;16.03;100.00
48668;BME280;34453;52.198;5.004;2023-09-19T08:20:08;100734.78;;;16.00;100.00
48668;BME280;34453;52.198;5.004;2023-09-19T08:22:51;100727.59;;;16.09;100.00
48668;BME280;34453;52.198;5.004;2023-09-19T08:25:20;100723.16;;;16.24;100.00
48668;BME280;34453;52.198;5.004;2023-09-19T08:27:47;100722.69;;;16.21;100.00
48668;BME280;34453;52.198;5.004;2023-09-19T08:30:17;100741.28;;;16.27;100.00
48668;BME280;34453;52.198;5.004;2023-09-19T08:32:43;100737.91;;;16.33;100.00
48668;BME280;34453;52.198;5.004;2023-09-19T08:35:10;100741.03;;;16.37;100.00
48668;BME280;34453;52.198;5.004;2023-09-19T08:37:35;100745.59;;;16.43;100.00
48668;BME280;34453;52.198;5.004;2023-09-19T08:40:01;100759.78;;;16.42;100.00
48668;BME280;34453;52.198;5.004;2023-09-19T08:42:27;100763.31;;;16.49;100.00
48668;BME280;34453;52.198;5.004;2023-09-19T08:44:52;100778.28;;;16.57;100.00
48668;BME280;34453;52.198;5.004;2023-09-19T08:47:28;100763.81;;;16.68;100.00
48668;BME280;34453;52.198;5.004;2023-09-19T08:50:26;100762.88;;;16.61;100.00
48668;BME280;34453;52.198;5.004;2023-09-19T08:52:51;100767.00;;;16.63;100.00
48668;BME280;34453;52.198;5.004;2023-09-19T08:55:26;100789.56;;;16.66;100.00
48668;BME280;34453;52.198;5.004;2023-09-19T08:57:59;100775.81;;;16.55;100.00
48668;BME280;34453;52.198;5.004;2023-09-19T09:00:26;100785.22;;;16.88;100.00
48668;BME280;34453;52.198;5.004;2023-09-19T09:02:54;100777.22;;;16.81;100.00
48668;BME280;34453;52.198;5.004;2023-09-19T09:05:22;100783.75;;;16.70;100.00
48668;BME280;34453;52.198;5.004;2023-09-19T09:07:49;100780.53;;;16.60;100.00
48668;BME280;34453;52.198;5.004;2023-09-19T09:10:18;100781.00;;;16.49;100.00
48668;BME280;34453;52.198;5.004;2023-09-19T09:12:44;100787.00;;;16.43;100.00
48668;BME280;34453;52.198;5.004;2023-09-19T09:15:10;100778.53;;;16.47;100.00
48668;BME280;34453;52.198;5.004;2023-09-19T09:17:37;100775.88;;;16.47;100.00
48668;BME280;34453;52.198;5.004;2023-09-19T09:20:03;100770.06;;;16.37;100.00
48668;BME280;34453;52.198;5.004;2023-09-19T09:22:35;100769.63;;;16.48;100.00
48668;BME280;34453;52.198;5.004;2023-09-19T09:25:01;100771.34;;;16.41;100.00
48668;BME280;34453;52.198;5.004;2023-09-19T09:27:29;100781.28;;;16.39;100.00
48668;BME280;34453;52.198;5.004;2023-09-19T09:29:55;100769.63;;;16.48;100.00
48668;BME280;34453;52.198;5.004;2023-09-19T09:32:30;100770.25;;;16.50;100.00
48668;BME280;34453;52.198;5.004;2023-09-19T09:35:00;100775.56;;;16.65;100.00
48668;BME280;34453;52.198;5.004;2023-09-19T09:37:26;100777.91;;;16.75;100.00
48668;BME280;34453;52.198;5.004;2023-09-19T09:39:58;100779.19;;;16.94;100.00
48668;BME280;34453;52.198;5.004;2023-09-19T09:42:36;100785.94;;;16.96;100.00
48668;BME280;34453;52.198;5.004;2023-09-19T09:45:25;100781.66;;;16.95;100.00
48668;BME280;34453;52.198;5.004;2023-09-19T09:48:02;100768.25;;;16.97;100.00
48668;BME280;34453;52.198;5.004;2023-09-19T09:50:35;100804.31;;;17.05;100.00
48668;BME280;34453;52.198;5.004;2023-09-19T09:53:03;100785.75;;;16.98;100.00
48668;BME280;34453;52.198;5.004;2023-09-19T09:56:08;100795.66;;;17.11;100.00
48668;BME280;34453;52.198;5.004;2023-09-19T09:58:50;100783.81;;;17.07;100.00
48668;BME280;34453;52.198;5.004;2023-09-19T10:01:21;100785.72;;;17.13;100.00
48668;BME280;34453;52.198;5.004;2023-09-19T10:03:57;100790.91;;;17.21;100.00
48668;BME280;34453;52.198;5.004;2023-09-19T10:06:22;100779.56;;;17.27;100.00
48668;BME280;34453;52.198;5.004;2023-09-19T10:11:30;100791.94;;;17.42;100.00
48668;BME280;34453;52.198;5.004;2023-09-19T10:13:58;100791.69;;;17.58;100.00
48668;BME280;34453;52.198;5.004;2023-09-19T10:16:29;100781.88;;;17.52;100.00
48668;BME280;34453;52.198;5.004;2023-09-19T10:18:58;100777.34;;;17.46;100.00
48668;BME280;34453;52.198;5.004;2023-09-19T10:21:28;100765.69;;;17.61;100.00
48668;BME280;34453;52.198;5.004;2023-09-19T10:23:58;100762.75;;;17.93;100.00
48668;BME280;34453;52.198;5.004;2023-09-19T10:26:27;100751.56;;;18.19;100.00
48668;BME280;34453;52.198;5.004;2023-09-19T10:28:56;100798.25;;;18.05;100.00
48668;BME280;34453;52.198;5.004;2023-09-19T10:31:23;100757.75;;;18.33;100.00
48668;BME280;34453;52.198;5.004;2023-09-19T10:33:51;100750.38;;;18.28;100.00
48668;BME280;34453;52.198;5.004;2023-09-19T10:36:17;100755.56;;;18.43;100.00
48668;BME280;34453;52.198;5.004;2023-09-19T10:38:45;100757.97;;;18.38;100.00
48668;BME280;34453;52.198;5.004;2023-09-19T10:41:14;100765.06;;;18.31;100.00
48668;BME280;34453;52.198;5.004;2023-09-19T10:43:42;100742.72;;;18.40;100.00
48668;BME280;34453;52.198;5.004;2023-09-19T10:46:12;100744.22;;;18.56;100.00
48668;BME280;34453;52.198;5.004;2023-09-19T10:48:39;100754.41;;;18.94;100.00
48668;BME280;34453;52.198;5.004;2023-09-19T10:51:09;100743.25;;;19.12;100.00
48668;BME280;34453;52.198;5.004;2023-09-19T10:53:45;100746.53;;;19.14;100.00
48668;BME280;34453;52.198;5.004;2023-09-19T10:56:19;100756.13;;;19.15;100.00
48668;BME280;34453;52.198;5.004;2023-09-19T10:58:47;100780.34;;;19.05;100.00
48668;BME280;34453;52.198;5.004;2023-09-19T11:01:14;100761.00;;;19.11;100.00
48668;BME280;34453;52.198;5.004;2023-09-19T11:03:41;100745.81;;;18.85;100.00
48668;BME280;34453;52.198;5.004;2023-09-19T11:06:12;100775.09;;;18.70;100.00
48668;BME280;34453;52.198;5.004;2023-09-19T11:09:04;100766.81;;;18.52;100.00
48668;BME280;34453;52.198;5.004;2023-09-19T11:11:51;100764.28;;;18.37;100.00
48668;BME280;34453;52.198;5.004;2023-09-19T11:17:35;100758.38;;;18.35;100.00
48668;BME280;34453;52.198;5.004;2023-09-19T11:30:49;100743.88;;;18.31;100.00
48668;BME280;34453;52.198;5.004;2023-09-19T11:46:26;100693.91;;;18.62;100.00
48668;BME280;34453;52.198;5.004;2023-09-19T11:48:54;100724.91;;;18.62;100.00
48668;BME280;34453;52.198;5.004;2023-09-19T11:51:25;100747.63;;;18.50;100.00
48668;BME280;34453;52.198;5.004;2023-09-19T11:53:56;100730.72;;;18.44;100.00
48668;BME280;34453;52.198;5.004;2023-09-19T11:56:24;100745.53;;;18.38;100.00
48668;BME280;34453;52.198;5.004;2023-09-19T11:58:53;100738.63;;;18.37;100.00
48668;BME280;34453;52.198;5.004;2023-09-19T12:01:23;100747.16;;;18.33;100.00
48668;BME280;34453;52.198;5.004;2023-09-19T12:03:53;100710.25;;;18.31;100.00
48668;BME280;34453;52.198;5.004;2023-09-19T12:06:19;100730.63;;;18.31;100.00
48668;BME280;34453;52.198;5.004;2023-09-19T12:08:47;100730.00;;;18.29;100.00
48668;BME280;34453;52.198;5.004;2023-09-19T12:11:14;100725.88;;;18.19;100.00
48668;BME280;34453;52.198;5.004;2023-09-19T12:13:47;100759.69;;;18.17;100.00
48668;BME280;34453;52.198;5.004;2023-09-19T12:16:20;100730.69;;;18.09;100.00
48668;BME280;34453;52.198;5.004;2023-09-19T12:18:50;100721.53;;;18.12;100.00
48668;BME280;34453;52.198;5.004;2023-09-19T12:21:29;100717.94;;;18.19;100.00
48668;BME280;34453;52.198;5.004;2023-09-19T12:24:07;100717.41;;;18.31;100.00
48668;BME280;34453;52.198;5.004;2023-09-19T12:26:45;100715.38;;;18.33;100.00
48668;BME280;34453;52.198;5.004;2023-09-19T12:29:20;100724.38;;;18.45;100.00
48668;BME280;34453;52.198;5.004;2023-09-19T12:31:53;100718.72;;;18.48;100.00
48668;BME280;34453;52.198;5.004;2023-09-19T12:34:27;100723.63;;;18.51;100.00
48668;BME280;34453;52.198;5.004;2023-09-19T12:37:10;100724.09;;;18.61;100.00
48668;BME280;34453;52.198;5.004;2023-09-19T12:39:46;100726.75;;;18.68;100.00
48668;BME280;34453;52.198;5.004;2023-09-19T12:42:17;100713.28;;;18.63;100.00
48668;BME280;34453;52.198;5.004;2023-09-19T12:44:50;100712.47;;;18.62;100.00
48668;BME280;34453;52.198;5.004;2023-09-19T12:47:23;100716.16;;;18.68;100.00
48668;BME280;34453;52.198;5.004;2023-09-19T12:50:15;100725.13;;;18.67;100.00
48668;BME280;34453;52.198;5.004;2023-09-19T12:52:48;100705.13;;;18.64;100.00
48668;BME280;34453;52.198;5.004;2023-09-19T12:55:25;100709.00;;;18.62;100.00
48668;BME280;34453;52.198;5.004;2023-09-19T12:58:13;100722.84;;;18.57;100.00
48668;BME280;34453;52.198;5.004;2023-09-19T13:00:44;100701.66;;;18.57;100.00
48668;BME280;34453;52.198;5.004;2023-09-19T13:05:57;100703.22;;;18.52;100.00
48668;BME280;34453;52.198;5.004;2023-09-19T13:08:29;100703.84;;;18.95;100.00
48668;BME280;34453;52.198;5.004;2023-09-19T13:11:06;100702.84;;;19.03;100.00
48668;BME280;34453;52.198;5.004;2023-09-19T13:13:35;100734.81;;;18.88;100.00
48668;BME280;34453;52.198;5.004;2023-09-19T13:16:02;100711.94;;;18.80;100.00
48668;BME280;34453;52.198;5.004;2023-09-19T13:18:28;100715.13;;;18.69;100.00
48668;BME280;34453;52.198;5.004;2023-09-19T13:21:10;100729.19;;;18.70;100.00
48668;BME280;34453;52.198;5.004;2023-09-19T13:23:43;100705.09;;;18.58;100.00
48668;BME280;34453;52.198;5.004;2023-09-19T13:26:10;100716.28;;;18.53;100.00
48668;BME280;34453;52.198;5.004;2023-09-19T13:28:37;100721.75;;;18.45;100.00
48668;BME280;34453;52.198;5.004;2023-09-19T13:31:02;100703.16;;;18.38;100.00
48668;BME280;34453;52.198;5.004;2023-09-19T13:33:28;100713.34;;;18.35;100.00